sensor_id;sensor_type;location;lat;lon;timestamp;temperature;humidity
27741;DHT22;15134;48.768;9.184;2023-07-13T00:02:15;23.00;97.20
27741;DHT22;15134;48.768;9.184;2023-07-13T00:04:41;22.90;97.00
27741;DHT22;15134;48.768;9.184;2023-07-13T00:07:08;22.80;97.20
27741;DHT22;15134;48.768;9.184;2023-07-13T00:09:34;22.80;97.00
27741;DHT22;15134;48.768;9.184;2023-07-13T00:11:59;22.80;97.10
27741;DHT22;15134;48.768;9.184;2023-07-13T00:14:27;22.80;97.00
27741;DHT22;15134;48.768;9.184;2023-07-13T00:16:53;22.80;96.90
27741;DHT22;15134;48.768;9.184;2023-07-13T00:19:19;22.80;96.70
27741;DHT22;15134;48.768;9.184;2023-07-13T00:21:45;22.80;96.40
27741;DHT22;15134;48.768;9.184;2023-07-13T00:24:14;22.80;96.40
27741;DHT22;15134;48.768;9.184;2023-07-13T00:26:41;22.80;96.40
27741;DHT22;15134;48.768;9.184;2023-07-13T00:29:10;22.80;96.30
27741;DHT22;15134;48.768;9.184;2023-07-13T00:31:36;22.80;96.10
27741;DHT22;15134;48.768;9.184;2023-07-13T00:34:03;22.70;96.00
27741;DHT22;15134;48.768;9.184;2023-07-13T00:36:30;22.60;96.10
27741;DHT22;15134;48.768;9.184;2023-07-13T00:38:57;22.50;96.20
27741;DHT22;15134;48.768;9.184;2023-07-13T00:41:23;22.50;96.30
27741;DHT22;15134;48.768;9.184;2023-07-13T00:43:50;22.40;96.70
27741;DHT22;15134;48.768;9.184;2023-07-13T00:46:17;22.40;96.50
27741;DHT22;15134;48.768;9.184;2023-07-13T00:48:45;22.40;96.30
27741;DHT22;15134;48.768;9.184;2023-07-13T00:51:12;22.40;96.20
27741;DHT22;15134;48.768;9.184;2023-07-13T00:53:40;22.40;96.20
27741;DHT22;15134;48.768;9.184;2023-07-13T00:56:06;22.40;96.20
27741;DHT22;15134;48.768;9.184;2023-07-13T00:58:32;22.50;96.40
27741;DHT22;15134;48.768;9.184;2023-07-13T01:00:58;22.50;96.00
27741;DHT22;15134;48.768;9.184;2023-07-13T01:03:24;22.50;95.90
27741;DHT22;15134;48.768;9.184;2023-07-13T01:05:51;22.50;95.90
27741;DHT22;15134;48.768;9.184;2023-07-13T01:08:20;22.50;95.80
27741;DHT22;15134;48.768;9.184;2023-07-13T01:10:57;22.60;95.90
27741;DHT22;15134;48.768;9.184;2023-07-13T01:13:23;22.60;95.80
27741;DHT22;15134;48.768;9.184;2023-07-13T01:15:51;22.60;95.80
27741;DHT22;15134;48.768;9.184;2023-07-13T01:18:22;22.60;95.80
27741;DHT22;15134;48.768;9.184;2023-07-13T01:21:00;22.60;95.90
27741;DHT22;15134;48.768;9.184;2023-07-13T01:23:28;22.60;95.80
27741;DHT22;15134;48.768;9.184;2023-07-13T01:25:55;22.60;95.70
27741;DHT22;15134;48.768;9.184;2023-07-13T01:28:22;22.50;95.80
27741;DHT22;15134;48.768;9.184;2023-07-13T01:30:49;22.50;95.70
27741;DHT22;15134;48.768;9.184;2023-07-13T01:33:16;22.50;96.10
27741;DHT22;15134;48.768;9.184;2023-07-13T01:35:46;22.40;95.90
27741;DHT22;15134;48.768;9.184;2023-07-13T01:38:17;22.40;96.10
27741;DHT22;15134;48.768;9.184;2023-07-13T01:40:43;22.30;96.20
27741;DHT22;15134;48.768;9.184;2023-07-13T01:43:09;22.30;96.20
27741;DHT22;15134;48.768;9.184;2023-07-13T01:45:35;22.30;96.50
27741;DHT22;15134;48.768;9.184;2023-07-13T01:48:02;22.30;96.20
27741;DHT22;15134;48.768;9.184;2023-07-13T01:50:28;22.20;96.50
27741;DHT22;15134;48.768;9.184;2023-07-13T01:52:54;22.20;96.70
27741;DHT22;15134;48.768;9.184;2023-07-13T01:55:21;22.20;96.30
27741;DHT22;15134;48.768;9.184;2023-07-13T01:57:47;22.10;96.30
27741;DHT22;15134;48.768;9.184;2023-07-13T02:00:13;22.10;96.60
27741;DHT22;15134;48.768;9.184;2023-07-13T02:02:42;22.00;96.90
27741;DHT22;15134;48.768;9.184;2023-07-13T02:05:10;22.00;96.60
27741;DHT22;15134;48.768;9.184;2023-07-13T02:07:36;22.00;96.60
27741;DHT22;15134;48.768;9.184;2023-07-13T02:10:03;21.90;96.50
27741;DHT22;15134;48.768;9.184;2023-07-13T02:12:29;21.90;96.70
27741;DHT22;15134;48.768;9.184;2023-07-13T02:14:55;21.90;96.90
27741;DHT22;15134;48.768;9.184;2023-07-13T02:17:20;21.80;97.00
27741;DHT22;15134;48.768;9.184;2023-07-13T02:19:46;21.80;97.20
27741;DHT22;15134;48.768;9.184;2023-07-13T02:22:12;21.80;96.80
27741;DHT22;15134;48.768;9.184;2023-07-13T02:24:38;21.80;96.40
27741;DHT22;15134;48.768;9.184;2023-07-13T02:27:04;21.80;96.90
27741;DHT22;15134;48.768;9.184;2023-07-13T02:29:30;21.80;96.90
27741;DHT22;15134;48.768;9.184;2023-07-13T02:31:56;21.70;97.00
27741;DHT22;15134;48.768;9.184;2023-07-13T02:34:23;21.70;96.80
27741;DHT22;15134;48.768;9.184;2023-07-13T02:36:48;21.70;97.00
27741;DHT22;15134;48.768;9.184;2023-07-13T02:39:14;21.60;96.70
27741;DHT22;15134;48.768;9.184;2023-07-13T02:41:41;21.60;97.00
27741;DHT22;15134;48.768;9.184;2023-07-13T02:44:06;21.50;96.70
27741;DHT22;15134;48.768;9.184;2023-07-13T02:46:35;21.50;97.00
27741;DHT22;15134;48.768;9.184;2023-07-13T02:49:02;21.40;97.40
27741;DHT22;15134;48.768;9.184;2023-07-13T02:51:28;21.40;97.40
27741;DHT22;15134;48.768;9.184;2023-07-13T02:53:54;21.40;97.10
27741;DHT22;15134;48.768;9.184;2023-07-13T02:56:23;21.40;97.40
27741;DHT22;15134;48.768;9.184;2023-07-13T02:58:49;21.40;97.80
27741;DHT22;15134;48.768;9.184;2023-07-13T03:01:17;21.40;97.60
27741;DHT22;15134;48.768;9.184;2023-07-13T03:03:43;21.40;97.50
27741;DHT22;15134;48.768;9.184;2023-07-13T03:06:09;21.40;97.50
27741;DHT22;15134;48.768;9.184;2023-07-13T03:08:42;21.30;97.60
27741;DHT22;15134;48.768;9.184;2023-07-13T03:11:10;21.30;98.00
27741;DHT22;15134;48.768;9.184;2023-07-13T03:13:40;21.30;97.60
27741;DHT22;15134;48.768;9.184;2023-07-13T03:16:07;21.30;98.10
27741;DHT22;15134;48.768;9.184;2023-07-13T03:18:33;21.30;98.10
27741;DHT22;15134;48.768;9.184;2023-07-13T03:21:03;21.30;98.00
27741;DHT22;15134;48.768;9.184;2023-07-13T03:23:29;21.30;98.30
27741;DHT22;15134;48.768;9.184;2023-07-13T03:26:14;21.40;98.50
27741;DHT22;15134;48.768;9.184;2023-07-13T03:28:41;21.40;98.50
27741;DHT22;15134;48.768;9.184;2023-07-13T03:31:13;21.50;98.00
27741;DHT22;15134;48.768;9.184;2023-07-13T03:33:40;21.50;98.20
27741;DHT22;15134;48.768;9.184;2023-07-13T03:36:07;21.50;98.50
27741;DHT22;15134;48.768;9.184;2023-07-13T03:38:34;21.60;98.40
27741;DHT22;15134;48.768;9.184;2023-07-13T03:41:02;21.50;98.20
27741;DHT22;15134;48.768;9.184;2023-07-13T03:43:28;21.60;98.40
27741;DHT22;15134;48.768;9.184;2023-07-13T03:45:55;21.50;98.30
27741;DHT22;15134;48.768;9.184;2023-07-13T03:48:21;21.50;98.20
27741;DHT22;15134;48.768;9.184;2023-07-13T03:50:48;21.50;98.30
27741;DHT22;15134;48.768;9.184;2023-07-13T03:53:15;21.50;98.30
27741;DHT22;15134;48.768;9.184;2023-07-13T03:55:41;21.50;98.30
27741;DHT22;15134;48.768;9.184;2023-07-13T03:58:33;21.50;97.90
27741;DHT22;15134;48.768;9.184;2023-07-13T04:01:09;21.60;97.70
27741;DHT22;15134;48.768;9.184;2023-07-13T04:03:36;21.60;97.70
27741;DHT22;15134;48.768;9.184;2023-07-13T04:06:03;21.60;97.70
27741;DHT22;15134;48.768;9.184;2023-07-13T04:08:31;21.60;97.60
27741;DHT22;15134;48.768;9.184;2023-07-13T04:10:59;21.60;97.70
27741;DHT22;15134;48.768;9.184;2023-07-13T04:13:25;21.60;97.60
27741;DHT22;15134;48.768;9.184;2023-07-13T04:15:51;21.60;97.60
27741;DHT22;15134;48.768;9.184;2023-07-13T04:18:17;21.60;97.90
27741;DHT22;15134;48.768;9.184;2023-07-13T04:20:43;21.60;97.80
27741;DHT22;15134;48.768;9.184;2023-07-13T04:23:09;21.60;97.80
27741;DHT22;15134;48.768;9.184;2023-07-13T04:25:35;21.60;98.00
27741;DHT22;15134;48.768;9.184;2023-07-13T04:28:03;21.60;98.00
27741;DHT22;15134;48.768;9.184;2023-07-13T04:30:29;21.60;98.20
27741;DHT22;15134;48.768;9.184;2023-07-13T04:32:55;21.60;98.40
27741;DHT22;15134;48.768;9.184;2023-07-13T04:35:21;21.70;98.70
27741;DHT22;15134;48.768;9.184;2023-07-13T04:37:49;21.70;98.60
27741;DHT22;15134;48.768;9.184;2023-07-13T04:40:16;21.70;98.60
27741;DHT22;15134;48.768;9.184;2023-07-13T04:42:43;21.70;98.40
27741;DHT22;15134;48.768;9.184;2023-07-13T04:45:09;21.70;98.30
27741;DHT22;15134;48.768;9.184;2023-07-13T04:47:34;21.70;98.20
27741;DHT22;15134;48.768;9.184;2023-07-13T04:50:00;21.70;98.30
27741;DHT22;15134;48.768;9.184;2023-07-13T04:52:26;21.70;98.40
27741;DHT22;15134;48.768;9.184;2023-07-13T04:54:51;21.70;97.80
27741;DHT22;15134;48.768;9.184;2023-07-13T04:57:17;21.70;98.10
27741;DHT22;15134;48.768;9.184;2023-07-13T04:59:43;21.80;98.10
27741;DHT22;15134;48.768;9.184;2023-07-13T05:02:09;21.80;98.30
27741;DHT22;15134;48.768;9.184;2023-07-13T05:04:35;21.90;98.10
27741;DHT22;15134;48.768;9.184;2023-07-13T05:07:01;22.00;98.30
27741;DHT22;15134;48.768;9.184;2023-07-13T05:09:27;22.10;98.60
27741;DHT22;15134;48.768;9.184;2023-07-13T05:11:52;22.10;98.60
27741;DHT22;15134;48.768;9.184;2023-07-13T05:14:18;22.30;98.70
27741;DHT22;15134;48.768;9.184;2023-07-13T05:16:44;22.40;98.70
27741;DHT22;15134;48.768;9.184;2023-07-13T05:19:09;22.60;98.50
27741;DHT22;15134;48.768;9.184;2023-07-13T05:21:35;22.70;98.40
27741;DHT22;15134;48.768;9.184;2023-07-13T05:24:01;22.80;98.10
27741;DHT22;15134;48.768;9.184;2023-07-13T05:26:27;22.90;98.40
27741;DHT22;15134;48.768;9.184;2023-07-13T05:28:52;23.00;98.30
27741;DHT22;15134;48.768;9.184;2023-07-13T05:31:18;23.10;97.80
27741;DHT22;15134;48.768;9.184;2023-07-13T05:33:44;23.10;97.20
27741;DHT22;15134;48.768;9.184;2023-07-13T05:36:10;23.20;97.00
27741;DHT22;15134;48.768;9.184;2023-07-13T05:38:35;23.30;96.60
27741;DHT22;15134;48.768;9.184;2023-07-13T05:41:01;23.30;96.10
27741;DHT22;15134;48.768;9.184;2023-07-13T05:43:27;23.20;95.90
27741;DHT22;15134;48.768;9.184;2023-07-13T05:45:54;23.30;96.20
27741;DHT22;15134;48.768;9.184;2023-07-13T05:48:20;23.20;96.20
27741;DHT22;15134;48.768;9.184;2023-07-13T05:50:46;23.20;96.10
27741;DHT22;15134;48.768;9.184;2023-07-13T05:53:12;23.10;95.90
27741;DHT22;15134;48.768;9.184;2023-07-13T05:55:56;23.10;95.60
27741;DHT22;15134;48.768;9.184;2023-07-13T05:58:22;23.10;95.50
27741;DHT22;15134;48.768;9.184;2023-07-13T06:00:48;23.20;95.50
27741;DHT22;15134;48.768;9.184;2023-07-13T06:03:15;23.20;95.00
27741;DHT22;15134;48.768;9.184;2023-07-13T06:05:41;23.20;95.00
27741;DHT22;15134;48.768;9.184;2023-07-13T06:08:07;23.30;95.20
27741;DHT22;15134;48.768;9.184;2023-07-13T06:10:36;23.50;95.10
27741;DHT22;15134;48.768;9.184;2023-07-13T06:13:02;23.80;94.80
27741;DHT22;15134;48.768;9.184;2023-07-13T06:15:28;24.60;94.40
27741;DHT22;15134;48.768;9.184;2023-07-13T06:17:54;26.00;93.40
27741;DHT22;15134;48.768;9.184;2023-07-13T06:20:20;27.60;92.10
27741;DHT22;15134;48.768;9.184;2023-07-13T06:22:45;28.60;90.60
27741;DHT22;15134;48.768;9.184;2023-07-13T06:25:11;29.00;88.00
27741;DHT22;15134;48.768;9.184;2023-07-13T06:27:37;29.80;86.20
27741;DHT22;15134;48.768;9.184;2023-07-13T06:30:03;31.10;84.40
27741;DHT22;15134;48.768;9.184;2023-07-13T06:32:29;32.30;79.50
27741;DHT22;15134;48.768;9.184;2023-07-13T06:34:55;33.30;78.20
27741;DHT22;15134;48.768;9.184;2023-07-13T06:37:21;34.20;75.20
27741;DHT22;15134;48.768;9.184;2023-07-13T06:39:47;35.10;72.50
27741;DHT22;15134;48.768;9.184;2023-07-13T06:42:12;35.60;70.30
27741;DHT22;15134;48.768;9.184;2023-07-13T06:44:39;36.20;68.20
27741;DHT22;15134;48.768;9.184;2023-07-13T06:47:05;36.60;67.30
27741;DHT22;15134;48.768;9.184;2023-07-13T06:49:31;37.00;65.20
27741;DHT22;15134;48.768;9.184;2023-07-13T06:51:57;36.60;65.10
27741;DHT22;15134;48.768;9.184;2023-07-13T06:54:23;35.70;66.30
27741;DHT22;15134;48.768;9.184;2023-07-13T06:56:48;35.30;66.20
27741;DHT22;15134;48.768;9.184;2023-07-13T06:59:14;34.80;67.80
27741;DHT22;15134;48.768;9.184;2023-07-13T07:01:40;34.90;67.30
27741;DHT22;15134;48.768;9.184;2023-07-13T07:04:06;35.40;67.70
27741;DHT22;15134;48.768;9.184;2023-07-13T07:06:34;35.70;66.00
27741;DHT22;15134;48.768;9.184;2023-07-13T07:09:00;36.50;65.30
27741;DHT22;15134;48.768;9.184;2023-07-13T07:11:26;38.00;64.10
27741;DHT22;15134;48.768;9.184;2023-07-13T07:13:52;39.30;62.30
27741;DHT22;15134;48.768;9.184;2023-07-13T07:16:19;40.30;58.60
27741;DHT22;15134;48.768;9.184;2023-07-13T07:18:46;41.20;57.70
27741;DHT22;15134;48.768;9.184;2023-07-13T07:21:12;41.60;55.40
27741;DHT22;15134;48.768;9.184;2023-07-13T07:23:38;42.30;55.80
27741;DHT22;15134;48.768;9.184;2023-07-13T07:26:04;43.00;54.50
27741;DHT22;15134;48.768;9.184;2023-07-13T07:28:30;43.50;53.30
27741;DHT22;15134;48.768;9.184;2023-07-13T07:30:57;43.90;53.30
27741;DHT22;15134;48.768;9.184;2023-07-13T07:33:24;44.40;52.30
27741;DHT22;15134;48.768;9.184;2023-07-13T07:35:50;45.00;51.50
27741;DHT22;15134;48.768;9.184;2023-07-13T07:38:16;45.40;50.70
27741;DHT22;15134;48.768;9.184;2023-07-13T07:40:42;45.80;49.90
27741;DHT22;15134;48.768;9.184;2023-07-13T07:43:08;45.90;49.50
27741;DHT22;15134;48.768;9.184;2023-07-13T07:45:35;45.70;49.50
27741;DHT22;15134;48.768;9.184;2023-07-13T07:48:01;45.90;49.80
27741;DHT22;15134;48.768;9.184;2023-07-13T07:50:28;46.10;49.00
27741;DHT22;15134;48.768;9.184;2023-07-13T07:52:54;45.80;48.50
27741;DHT22;15134;48.768;9.184;2023-07-13T07:55:21;46.10;47.60
27741;DHT22;15134;48.768;9.184;2023-07-13T07:57:47;46.10;48.10
27741;DHT22;15134;48.768;9.184;2023-07-13T08:00:14;46.30;47.20
27741;DHT22;15134;48.768;9.184;2023-07-13T08:02:40;46.70;47.50
27741;DHT22;15134;48.768;9.184;2023-07-13T08:05:07;47.00;47.20
27741;DHT22;15134;48.768;9.184;2023-07-13T08:07:34;47.20;45.80
27741;DHT22;15134;48.768;9.184;2023-07-13T08:09:59;47.10;45.50
27741;DHT22;15134;48.768;9.184;2023-07-13T08:12:25;47.20;45.40
27741;DHT22;15134;48.768;9.184;2023-07-13T08:14:51;47.50;45.30
27741;DHT22;15134;48.768;9.184;2023-07-13T08:17:23;47.50;45.70
27741;DHT22;15134;48.768;9.184;2023-07-13T08:19:49;47.50;45.20
27741;DHT22;15134;48.768;9.184;2023-07-13T08:22:15;47.60;45.00
27741;DHT22;15134;48.768;9.184;2023-07-13T08:24:41;47.70;44.10
27741;DHT22;15134;48.768;9.184;2023-07-13T08:27:11;47.80;44.20
27741;DHT22;15134;48.768;9.184;2023-07-13T08:29:37;47.90;44.20
27741;DHT22;15134;48.768;9.184;2023-07-13T08:32:06;47.90;44.20
27741;DHT22;15134;48.768;9.184;2023-07-13T08:34:35;48.10;44.30
27741;DHT22;15134;48.768;9.184;2023-07-13T08:37:01;48.00;43.90
27741;DHT22;15134;48.768;9.184;2023-07-13T08:39:30;47.70;44.50
27741;DHT22;15134;48.768;9.184;2023-07-13T08:42:01;47.80;43.40
27741;DHT22;15134;48.768;9.184;2023-07-13T08:44:55;47.70;44.00
27741;DHT22;15134;48.768;9.184;2023-07-13T08:47:24;47.80;43.80
27741;DHT22;15134;48.768;9.184;2023-07-13T08:49:50;48.10;43.60
27741;DHT22;15134;48.768;9.184;2023-07-13T08:52:18;48.00;43.40
27741;DHT22;15134;48.768;9.184;2023-07-13T08:54:51;47.50;43.70
27741;DHT22;15134;48.768;9.184;2023-07-13T08:57:33;47.00;44.70
27741;DHT22;15134;48.768;9.184;2023-07-13T08:59:59;47.20;44.30
27741;DHT22;15134;48.768;9.184;2023-07-13T09:05:18;40.70;49.10
27741;DHT22;15134;48.768;9.184;2023-07-13T09:08:07;41.00;50.20
27741;DHT22;15134;48.768;9.184;2023-07-13T09:10:46;42.50;48.90
27741;DHT22;15134;48.768;9.184;2023-07-13T09:13:37;42.40;48.50
27741;DHT22;15134;48.768;9.184;2023-07-13T09:16:05;41.80;48.90
27741;DHT22;15134;48.768;9.184;2023-07-13T09:18:59;41.10;49.30
27741;DHT22;15134;48.768;9.184;2023-07-13T09:21:31;40.20;50.30
27741;DHT22;15134;48.768;9.184;2023-07-13T09:24:01;39.40;50.90
27741;DHT22;15134;48.768;9.184;2023-07-13T09:26:28;38.20;51.70
27741;DHT22;15134;48.768;9.184;2023-07-13T09:29:06;38.50;52.30
27741;DHT22;15134;48.768;9.184;2023-07-13T09:31:45;39.50;51.60
27741;DHT22;15134;48.768;9.184;2023-07-13T09:34:13;40.70;50.20
27741;DHT22;15134;48.768;9.184;2023-07-13T09:36:39;41.50;49.00
27741;DHT22;15134;48.768;9.184;2023-07-13T09:44:27;38.30;51.80
27741;DHT22;15134;48.768;9.184;2023-07-13T09:46:56;37.00;53.30
27741;DHT22;15134;48.768;9.184;2023-07-13T09:49:36;35.60;54.30
27741;DHT22;15134;48.768;9.184;2023-07-13T09:54:34;33.00;57.10
27741;DHT22;15134;48.768;9.184;2023-07-13T09:57:02;33.40;57.30
27741;DHT22;15134;48.768;9.184;2023-07-13T10:02:00;34.90;54.50
27741;DHT22;15134;48.768;9.184;2023-07-13T10:04:30;35.10;54.90
27741;DHT22;15134;48.768;9.184;2023-07-13T10:07:07;34.70;55.10
27741;DHT22;15134;48.768;9.184;2023-07-13T10:09:33;34.00;56.40
27741;DHT22;15134;48.768;9.184;2023-07-13T10:11:59;33.30;57.20
27741;DHT22;15134;48.768;9.184;2023-07-13T10:14:25;33.10;57.30
27741;DHT22;15134;48.768;9.184;2023-07-13T10:17:01;32.80;58.20
27741;DHT22;15134;48.768;9.184;2023-07-13T10:19:34;32.30;58.90
27741;DHT22;15134;48.768;9.184;2023-07-13T10:22:03;31.60;60.50
27741;DHT22;15134;48.768;9.184;2023-07-13T10:24:37;31.60;60.20
27741;DHT22;15134;48.768;9.184;2023-07-13T10:27:15;31.50;60.10
27741;DHT22;15134;48.768;9.184;2023-07-13T10:32:38;30.70;61.20
27741;DHT22;15134;48.768;9.184;2023-07-13T10:35:04;30.70;61.40
27741;DHT22;15134;48.768;9.184;2023-07-13T10:37:44;30.70;62.00
27741;DHT22;15134;48.768;9.184;2023-07-13T10:40:18;30.90;61.50
27741;DHT22;15134;48.768;9.184;2023-07-13T10:42:48;31.10;61.60
27741;DHT22;15134;48.768;9.184;2023-07-13T10:45:20;31.10;61.80
27741;DHT22;15134;48.768;9.184;2023-07-13T10:47:48;30.70;61.90
27741;DHT22;15134;48.768;9.184;2023-07-13T10:50:26;30.60;61.80
27741;DHT22;15134;48.768;9.184;2023-07-13T10:53:03;30.70;62.20
27741;DHT22;15134;48.768;9.184;2023-07-13T10:58:28;30.90;61.10
27741;DHT22;15134;48.768;9.184;2023-07-13T11:06:41;31.00;61.60
27741;DHT22;15134;48.768;9.184;2023-07-13T11:09:35;31.10;60.80
27741;DHT22;15134;48.768;9.184;2023-07-13T11:12:26;30.70;61.20
27741;DHT22;15134;48.768;9.184;2023-07-13T11:20:20;30.50;61.90
27741;DHT22;15134;48.768;9.184;2023-07-13T11:22:52;29.90;62.20
27741;DHT22;15134;48.768;9.184;2023-07-13T11:38:17;28.70;67.20
27741;DHT22;15134;48.768;9.184;2023-07-13T11:40:45;28.60;66.70
27741;DHT22;15134;48.768;9.184;2023-07-13T11:43:16;28.80;66.50
27741;DHT22;15134;48.768;9.184;2023-07-13T11:45:43;28.80;66.20
27741;DHT22;15134;48.768;9.184;2023-07-13T11:48:28;28.70;66.70
27741;DHT22;15134;48.768;9.184;2023-07-13T11:50:57;28.70;66.30
27741;DHT22;15134;48.768;9.184;2023-07-13T11:53:27;28.40;66.30
27741;DHT22;15134;48.768;9.184;2023-07-13T11:55:54;28.00;67.10
27741;DHT22;15134;48.768;9.184;2023-07-13T11:58:24;27.90;67.90
27741;DHT22;15134;48.768;9.184;2023-07-13T12:00:51;27.80;67.30
27741;DHT22;15134;48.768;9.184;2023-07-13T12:03:22;28.00;68.00
27741;DHT22;15134;48.768;9.184;2023-07-13T12:08:32;28.60;66.00
27741;DHT22;15134;48.768;9.184;2023-07-13T12:11:05;28.60;66.80
27741;DHT22;15134;48.768;9.184;2023-07-13T12:13:37;28.50;66.90
27741;DHT22;15134;48.768;9.184;2023-07-13T12:16:25;28.40;65.90
27741;DHT22;15134;48.768;9.184;2023-07-13T12:18:53;28.20;67.30
27741;DHT22;15134;48.768;9.184;2023-07-13T12:21:23;28.20;67.50
27741;DHT22;15134;48.768;9.184;2023-07-13T12:23:51;28.10;67.00
27741;DHT22;15134;48.768;9.184;2023-07-13T12:26:18;28.20;67.20
27741;DHT22;15134;48.768;9.184;2023-07-13T12:34:07;27.80;66.70
27741;DHT22;15134;48.768;9.184;2023-07-13T12:36:35;27.90;67.90
27741;DHT22;15134;48.768;9.184;2023-07-13T12:39:12;27.90;66.80
27741;DHT22;15134;48.768;9.184;2023-07-13T12:41:38;27.80;67.40
27741;DHT22;15134;48.768;9.184;2023-07-13T12:44:09;27.70;67.50
27741;DHT22;15134;48.768;9.184;2023-07-13T12:46:35;27.60;67.00
27741;DHT22;15134;48.768;9.184;2023-07-13T12:49:06;27.60;67.80
27741;DHT22;15134;48.768;9.184;2023-07-13T12:51:33;27.40;67.20
27741;DHT22;15134;48.768;9.184;2023-07-13T12:54:18;27.50;67.60
27741;DHT22;15134;48.768;9.184;2023-07-13T12:56:45;27.60;67.70
27741;DHT22;15134;48.768;9.184;2023-07-13T12:59:19;27.80;66.70
27741;DHT22;15134;48.768;9.184;2023-07-13T13:01:46;27.70;67.40
27741;DHT22;15134;48.768;9.184;2023-07-13T13:04:12;27.70;66.60
27741;DHT22;15134;48.768;9.184;2023-07-13T13:06:39;27.60;67.70
27741;DHT22;15134;48.768;9.184;2023-07-13T13:09:12;27.50;68.10
27741;DHT22;15134;48.768;9.184;2023-07-13T13:11:38;27.50;67.60
27741;DHT22;15134;48.768;9.184;2023-07-13T13:14:05;27.60;67.60
27741;DHT22;15134;48.768;9.184;2023-07-13T13:16:34;27.70;67.20
27741;DHT22;15134;48.768;9.184;2023-07-13T13:19:26;27.60;67.70
27741;DHT22;15134;48.768;9.184;2023-07-13T13:21:54;27.60;67.30
27741;DHT22;15134;48.768;9.184;2023-07-13T13:24:23;27.50;66.70
27741;DHT22;15134;48.768;9.184;2023-07-13T13:26:51;27.60;66.30
27741;DHT22;15134;48.768;9.184;2023-07-13T13:29:22;27.60;67.00
27741;DHT22;15134;48.768;9.184;2023-07-13T13:31:50;27.50;67.30
27741;DHT22;15134;48.768;9.184;2023-07-13T13:34:18;27.60;66.90
27741;DHT22;15134;48.768;9.184;2023-07-13T13:36:46;27.60;66.80
27741;DHT22;15134;48.768;9.184;2023-07-13T13:39:24;27.50;67.70
27741;DHT22;15134;48.768;9.184;2023-07-13T13:41:52;27.50;67.10
27741;DHT22;15134;48.768;9.184;2023-07-13T13:44:22;27.40;67.40
27741;DHT22;15134;48.768;9.184;2023-07-13T13:46:50;27.40;67.20
27741;DHT22;15134;48.768;9.184;2023-07-13T13:49:19;27.40;68.30
27741;DHT22;15134;48.768;9.184;2023-07-13T13:51:46;27.40;67.50
27741;DHT22;15134;48.768;9.184;2023-07-13T13:54:13;27.30;66.80
27741;DHT22;15134;48.768;9.184;2023-07-13T13:56:44;27.20;67.20
27741;DHT22;15134;48.768;9.184;2023-07-13T13:59:14;27.20;66.40
27741;DHT22;15134;48.768;9.184;2023-07-13T14:01:41;27.10;66.80
27741;DHT22;15134;48.768;9.184;2023-07-13T14:04:13;26.90;68.10
27741;DHT22;15134;48.768;9.184;2023-07-13T14:06:40;26.80;67.80
27741;DHT22;15134;48.768;9.184;2023-07-13T14:09:10;26.80;68.40
27741;DHT22;15134;48.768;9.184;2023-07-13T14:11:36;27.00;67.70
27741;DHT22;15134;48.768;9.184;2023-07-13T14:14:02;27.10;67.40
27741;DHT22;15134;48.768;9.184;2023-07-13T14:16:31;27.10;68.00
27741;DHT22;15134;48.768;9.184;2023-07-13T14:18:58;27.10;68.20
27741;DHT22;15134;48.768;9.184;2023-07-13T14:21:26;27.20;67.70
27741;DHT22;15134;48.768;9.184;2023-07-13T14:23:52;27.20;66.90
27741;DHT22;15134;48.768;9.184;2023-07-13T14:26:20;27.30;67.70
27741;DHT22;15134;48.768;9.184;2023-07-13T14:28:54;27.20;67.70
27741;DHT22;15134;48.768;9.184;2023-07-13T14:31:21;27.00;68.10
27741;DHT22;15134;48.768;9.184;2023-07-13T14:33:47;26.80;68.50
27741;DHT22;15134;48.768;9.184;2023-07-13T14:38:57;27.10;68.10
27741;DHT22;15134;48.768;9.184;2023-07-13T14:41:23;27.10;67.60
27741;DHT22;15134;48.768;9.184;2023-07-13T14:43:49;27.20;67.90
27741;DHT22;15134;48.768;9.184;2023-07-13T14:46:28;27.10;67.30
27741;DHT22;15134;48.768;9.184;2023-07-13T14:49:01;27.20;68.10
27741;DHT22;15134;48.768;9.184;2023-07-13T14:51:27;27.30;67.50
27741;DHT22;15134;48.768;9.184;2023-07-13T14:53:53;27.20;67.60
27741;DHT22;15134;48.768;9.184;2023-07-13T14:56:19;27.20;67.80
27741;DHT22;15134;48.768;9.184;2023-07-13T14:58:45;27.30;68.20
27741;DHT22;15134;48.768;9.184;2023-07-13T15:01:15;27.30;67.90
27741;DHT22;15134;48.768;9.184;2023-07-13T15:03:46;27.30;67.80
27741;DHT22;15134;48.768;9.184;2023-07-13T15:06:13;27.20;67.70
27741;DHT22;15134;48.768;9.184;2023-07-13T15:08:39;27.10;68.60
27741;DHT22;15134;48.768;9.184;2023-07-13T15:11:09;27.00;68.20
27741;DHT22;15134;48.768;9.184;2023-07-13T15:13:38;26.90;69.10
27741;DHT22;15134;48.768;9.184;2023-07-13T15:16:10;26.90;69.40
27741;DHT22;15134;48.768;9.184;2023-07-13T15:18:39;26.80;69.20
27741;DHT22;15134;48.768;9.184;2023-07-13T15:21:11;26.70;69.30
27741;DHT22;15134;48.768;9.184;2023-07-13T15:23:42;26.70;69.20
27741;DHT22;15134;48.768;9.184;2023-07-13T15:26:13;26.70;69.30
27741;DHT22;15134;48.768;9.184;2023-07-13T15:28:44;26.70;69.00
27741;DHT22;15134;48.768;9.184;2023-07-13T15:31:19;26.70;68.60
27741;DHT22;15134;48.768;9.184;2023-07-13T15:33:46;26.70;69.60
27741;DHT22;15134;48.768;9.184;2023-07-13T15:36:15;26.70;69.30
27741;DHT22;15134;48.768;9.184;2023-07-13T15:38:43;26.60;69.40
27741;DHT22;15134;48.768;9.184;2023-07-13T15:41:18;26.50;70.30
27741;DHT22;15134;48.768;9.184;2023-07-13T15:43:46;26.40;70.00
27741;DHT22;15134;48.768;9.184;2023-07-13T15:46:13;26.20;70.40
27741;DHT22;15134;48.768;9.184;2023-07-13T15:48:39;26.20;70.10
27741;DHT22;15134;48.768;9.184;2023-07-13T15:51:11;26.20;70.20
27741;DHT22;15134;48.768;9.184;2023-07-13T15:53:39;26.30;69.40
27741;DHT22;15134;48.768;9.184;2023-07-13T15:58:47;26.10;69.90
27741;DHT22;15134;48.768;9.184;2023-07-13T16:01:13;26.10;70.20
27741;DHT22;15134;48.768;9.184;2023-07-13T16:03:39;26.00;70.30
27741;DHT22;15134;48.768;9.184;2023-07-13T16:09:18;26.00;70.40
27741;DHT22;15134;48.768;9.184;2023-07-13T16:11:45;26.10;71.10
27741;DHT22;15134;48.768;9.184;2023-07-13T16:14:14;26.10;69.60
27741;DHT22;15134;48.768;9.184;2023-07-13T16:16:41;26.10;70.20
27741;DHT22;15134;48.768;9.184;2023-07-13T16:19:06;26.10;70.80
27741;DHT22;15134;48.768;9.184;2023-07-13T16:22:00;26.10;70.90
27741;DHT22;15134;48.768;9.184;2023-07-13T16:24:26;26.00;70.20
27741;DHT22;15134;48.768;9.184;2023-07-13T16:26:52;26.10;70.80
27741;DHT22;15134;48.768;9.184;2023-07-13T16:29:22;26.10;71.20
27741;DHT22;15134;48.768;9.184;2023-07-13T16:34:21;26.00;70.20
27741;DHT22;15134;48.768;9.184;2023-07-13T16:36:46;25.90;70.00
27741;DHT22;15134;48.768;9.184;2023-07-13T16:39:13;25.90;70.30
27741;DHT22;15134;48.768;9.184;2023-07-13T16:41:40;25.90;70.20